Data for 11/14/2007

Time Sea-Level Adjusted Pressure Absolute Pressure Temperature Relative Humidity Dew Point   
(mb) (inHg) (mb) (inHg) (C) (F) (%) (C) (F)
00:05 1026 30.3 855 25.25 -3.6 25.6 53 -11.8 10.7
00:10 1026 30.3 856 25.28 -3.7 25.4 52 -12.1 10.1
00:15 1026 30.3 856 25.28 -3.6 25.5 53 -12 10.5
00:20 1026 30.3 856 25.28 -3.7 25.4 53 -11.9 10.6
00:25 1026 30.3 856 25.28 -3.7 25.3 53 -12 10.4
00:30 1027 30.33 856 25.28 -3.6 25.4 54 -11.8 10.8
00:35 1027 30.33 856 25.28 -3.8 25.2 54 -11.7 11
00:40 1027 30.33 856 25.28 -3.8 25.1 54 -11.9 10.6
00:45 1027 30.33 856 25.28 -3.8 25.1 56 -11.4 11.5
00:50 1027 30.33 856 25.28 -4.1 24.6 56 -11.8 10.8
00:55 1027 30.33 856 25.28 -3.9 25 55 -11.6 11.1
01:00 1027 30.33 856 25.28 -3.7 25.3 54 -11.6 11.1
01:05 1027 30.33 856 25.28 -3.4 25.9 53 -11.7 10.9
01:10 1027 30.33 856 25.28 -3 26.6 51 -11.8 10.8
01:15 1027 30.33 856 25.28 -2.9 26.7 51 -11.6 11.1
01:20 1027 30.33 856 25.28 -2.9 26.8 51 -11.8 10.8
01:25 1027 30.33 856 25.28 -2.8 26.9 51 -11.5 11.2
01:30 1027 30.33 856 25.28 -2.8 27 52 -11.4 11.4
01:35 1027 30.33 856 25.28 -2.7 27.1 50 -11.7 11
01:40 1027 30.33 856 25.28 -2.8 27 53 -11.2 11.9
01:45 1027 30.33 857 25.31 -3 26.7 53 -11.3 11.7
01:50 1027 30.33 857 25.31 -3 26.5 54 -11.2 11.9
01:55 1028 30.36 857 25.31 -3 26.6 56 -10.7 12.7
02:00 1028 30.36 857 25.31 -3.2 26.3 58 -10.4 13.2
02:05 1028 30.36 857 25.31 -3 26.6 52 -11.4 11.4
02:10 1028 30.36 857 25.31 -2.8 27 50 -12 10.5
02:15 1028 30.36 857 25.31 -2.6 27.3 51 -11.4 11.4
02:20 1028 30.36 857 25.31 -2.7 27.2 50 -11.7 10.9
02:25 1028 30.36 857 25.31 -2.7 27.2 52 -11.2 11.8
02:30 1028 30.36 857 25.31 -2.7 27.1 53 -11 12.2
02:35 1028 30.36 857 25.31 -2.8 26.9 53 -11.1 12.1
02:40 1028 30.36 857 25.31 -2.9 26.7 52 -11.5 11.3
02:45 1028 30.36 857 25.31 -2.9 26.8 52 -11.5 11.3
02:50 1028 30.36 857 25.31 -2.9 26.7 54 -11 12.2
02:55 1028 30.36 857 25.31 -3 26.5 52 -11.7 11
03:00 1028 30.36 857 25.31 -3.1 26.4 54 -11.2 11.8
03:05 1028 30.36 857 25.31 -3.3 26.1 55 -11.1 12
03:10 1028 30.36 857 25.31 -3.4 25.9 54 -11.3 11.6
03:15 1028 30.36 857 25.31 -3.3 26.1 54 -11.3 11.6
03:20 1028 30.36 857 25.31 -3.4 25.9 54 -11.5 11.3
03:25 1028 30.36 857 25.31 -3.4 25.9 53 -11.7 10.9
03:30 1028 30.36 857 25.31 -3.3 26 52 -11.9 10.6
03:35 1028 30.36 858 25.34 -3.3 26.1 52 -11.9 10.6
03:40 1028 30.36 858 25.34 -3.3 26 52 -11.8 10.8
03:45 1028 30.36 858 25.34 -3.4 25.9 53 -11.8 10.8
03:50 1029 30.39 858 25.34 -3.5 25.8 53 -11.8 10.8
03:55 1029 30.39 858 25.34 -3.5 25.8 53 -11.8 10.8
04:00 1029 30.39 858 25.34 -3.4 25.9 53 -11.7 11
04:05 1029 30.39 858 25.34 -3.4 25.9 53 -11.7 10.9
04:10 1029 30.39 858 25.34 -3.4 25.9 53 -11.8 10.8
04:15 1029 30.39 858 25.34 -3.4 25.9 51 -12.1 10.1
04:20 1029 30.39 858 25.34 -3.4 25.8 54 -11.5 11.2
04:25 1029 30.39 858 25.34 -4 24.7 55 -11.7 10.9
04:30 1029 30.39 858 25.34 -4.4 24.2 55 -12.1 10.1
04:35 1029 30.39 858 25.34 -4.4 24.1 54 -12.3 9.8
04:40 1029 30.39 858 25.34 -4.4 24 54 -12.4 9.7
04:45 1029 30.39 858 25.34 -4.6 23.8 55 -12.3 9.8
04:50 1029 30.39 858 25.34 -4.7 23.5 56 -12.3 9.9
04:55 1029 30.39 858 25.34 -4.8 23.3 56 -12.3 9.9
05:00 1029 30.39 858 25.34 -4.8 23.3 56 -12.3 9.9
05:05 1029 30.39 858 25.34 -4.7 23.6 55 -12.5 9.5
05:10 1029 30.39 858 25.34 -4.6 23.8 55 -12.3 9.8
05:15 1029 30.39 858 25.34 -4.7 23.6 55 -12.4 9.6
05:20 1029 30.39 858 25.34 -5 23 57 -12.3 9.9
05:25 1029 30.39 858 25.34 -5.3 22.4 58 -12.4 9.7
05:30 1029 30.39 858 25.34 -5.5 22.2 58 -12.6 9.4
05:35 1029 30.39 858 25.34 -5.5 22.2 57 -12.6 9.3
05:40 1029 30.39 858 25.34 -5.6 21.9 59 -12.4 9.6
05:45 1029 30.39 858 25.34 -5.4 22.3 56 -12.9 8.8
05:50 1029 30.39 858 25.34 -4.7 23.6 53 -12.9 8.8
05:55 1029 30.39 858 25.34 -4.6 23.8 53 -12.7 9.2
06:00 1029 30.39 858 25.34 -4.7 23.5 54 -12.6 9.3
06:05 1029 30.39 858 25.34 -4.9 23.1 55 -12.7 9.2
06:10 1029 30.39 858 25.34 -5.2 22.6 56 -12.7 9.1
06:15 1029 30.39 858 25.34 -5.7 21.8 56 -13.1 8.5
06:20 1029 30.39 858 25.34 -5.8 21.6 58 -12.8 9
06:25 1029 30.39 858 25.34 -6.2 20.9 61 -12.5 9.5
06:30 1029 30.39 858 25.34 -6.4 20.5 63 -12.4 9.7
06:35 1029 30.39 858 25.34 -6.3 20.7 63 -12.3 9.8
06:40 1029 30.39 859 25.37 -5.9 21.4 62 -12.1 10.2
06:45 1029 30.39 859 25.37 -5.7 21.7 59 -12.5 9.5
06:50 1029 30.39 859 25.37 -5.6 22 61 -11.9 10.7
06:55 1029 30.39 859 25.37 -6.2 20.9 67 -11.3 11.7
07:00 1029 30.39 859 25.37 -6.4 20.5 68 -11.4 11.4
07:05 1029 30.39 859 25.37 -6.4 20.5 68 -11.3 11.6
07:10 1030 30.42 859 25.37 -6.7 19.9 70 -11.4 11.6
07:15 1030 30.42 859 25.37 -6.6 20.2 68 -11.4 11.4
07:20 1030 30.42 859 25.37 -6.5 20.3 68 -11.5 11.4
07:25 1030 30.42 859 25.37 -6.4 20.5 67 -11.7 11
07:30 1030 30.42 859 25.37 -6.5 20.4 69 -11.2 11.9
07:35 1030 30.42 859 25.37 -6.8 19.7 71 -11.3 11.7
07:40 1030 30.42 859 25.37 -7.1 19.3 72 -11.2 11.8
07:45 1030 30.42 859 25.37 -7 19.4 71 -11.4 11.4
07:50 1030 30.42 859 25.37 -7 19.4 69 -11.7 10.9
07:55 1030 30.42 859 25.37 -7.3 18.9 71 -11.6 11.1
08:00 1030 30.42 859 25.37 -7.3 18.8 70 -11.9 10.6
08:05 1030 30.42 859 25.37 -7 19.4 69 -11.8 10.8
08:10 1030 30.42 859 25.37 -6.9 19.6 69 -11.7 11
08:15 1030 30.42 859 25.37 -6.8 19.8 68 -11.7 10.9
08:20 1030 30.42 859 25.37 -6.5 20.3 66 -11.8 10.8
08:25 1030 30.42 859 25.37 -6.1 21 65 -11.7 10.9
08:30 1030 30.42 859 25.37 -5.9 21.4 64 -11.7 10.9
08:35 1030 30.42 859 25.37 -5.4 22.3 62 -11.5 11.3
08:40 1030 30.42 859 25.37 -4.8 23.4 59 -11.6 11.2
08:45 1030 30.42 859 25.37 -4.3 24.3 59 -11.2 11.8
08:50 1030 30.42 859 25.37 -4.2 24.5 58 -11.2 11.8
08:55 1030 30.42 859 25.37 -4.1 24.7 56 -11.6 11.1
09:00 1030 30.42 860 25.4 -3.6 25.4 55 -11.5 11.3
09:05 1030 30.42 860 25.4 -3.5 25.6 54 -11.6 11
09:10 1030 30.42 860 25.4 -3.3 26.1 52 -11.8 10.7
09:15 1030 30.42 860 25.4 -3.5 25.8 53 -11.7 10.9
09:20 1030 30.42 860 25.4 -2.7 27.2 50 -11.7 11
09:25 1030 30.42 860 25.4 -2.1 28.3 48 -11.8 10.8
09:30 1030 30.42 860 25.4 -1.9 28.5 47 -11.8 10.8
09:35 1030 30.42 860 25.4 -1.6 29.1 47 -11.6 11.1
09:40 1030 30.42 860 25.4 -1.4 29.4 47 -11.4 11.4
09:45 1030 30.42 860 25.4 -1.3 29.7 47 -11.2 11.8
09:50 1030 30.42 860 25.4 -1.3 29.7 46 -11.5 11.2
09:55 1030 30.42 860 25.4 -1.1 30.1 44 -11.8 10.8
10:00 1030 30.42 860 25.4 -0.8 30.6 42 -12 10.4
10:05 1030 30.42 860 25.4 -0.4 31.3 40 -12.3 9.9
10:10 1030 30.42 860 25.4 -0.1 31.8 41 -11.9 10.6
10:15 1030 30.42 860 25.4 0.1 32.1 39 -12.4 9.6
10:20 1031 30.45 860 25.4 0.8 33.4 37 -12.2 10
10:25 1031 30.45 860 25.4 0.7 33.3 38 -12.2 10.1
10:30 1031 30.45 860 25.4 0.7 33.3 36 -12.6 9.3
10:35 1031 30.45 860 25.4 0.6 33.2 36 -12.8 9
10:40 1031 30.45 860 25.4 1 33.9 35 -12.8 9
10:45 1031 30.45 860 25.4 0.5 32.9 36 -13.1 8.5
10:50 1031 30.45 860 25.4 -0.4 31.2 38 -13.2 8.3
10:55 1031 30.45 860 25.4 -0 32 36 -13.5 7.7
11:00 1031 30.45 860 25.4 1 33.8 36 -12.6 9.3
11:05 1031 30.45 860 25.4 1.3 34.3 35 -12.6 9.3
11:10 1030 30.42 860 25.4 1.6 34.9 35 -12.4 9.7
11:15 1030 30.42 860 25.4 1 33.7 35 -12.7 9.1
11:20 1030 30.42 860 25.4 0.1 32.2 33 -14.4 6.1
11:25 1030 30.42 860 25.4 0.3 32.5 34 -14 6.8
11:30 1030 30.42 860 25.4 0.4 32.7 32 -14.6 5.8
11:35 1030 30.42 859 25.37 0.9 33.6 32 -14.2 6.5
11:40 1030 30.42 859 25.37 1.4 34.5 31 -14 6.8
11:45 1030 30.42 859 25.37 1.6 34.8 34 -12.5 9.4
11:50 1030 30.42 859 25.37 1.3 34.4 39 -11.1 12.1
11:55 1030 30.42 859 25.37 2 35.6 33 -12.6 9.2
12:00 1030 30.42 859 25.37 2 35.7 41 -10 14
12:05 1030 30.42 859 25.37 0.9 33.7 40 -11.1 12
12:10 1030 30.42 859 25.37 0.4 32.7 42 -11.1 12.1
12:15 1030 30.42 859 25.37 0.8 33.5 41 -11.1 12.1
12:20 1030 30.42 859 25.37 1.4 34.5 39 -11.2 11.8
12:25 1030 30.42 859 25.37 1.4 34.6 38 -11.4 11.6
12:30 1030 30.42 859 25.37 1.2 34.2 39 -11.4 11.6
12:35 1030 30.42 859 25.37 1.4 34.4 38 -11.6 11
12:40 1030 30.42 859 25.37 1.7 35.1 38 -11.3 11.6
12:45 1030 30.42 859 25.37 1.4 34.5 38 -11.5 11.3
12:50 1029 30.39 859 25.37 1.9 35.4 35 -12.1 10.3
12:55 1029 30.39 859 25.37 2.9 37.3 32 -12.4 9.7
13:00 1029 30.39 858 25.34 3 37.5 32 -12.2 10.1
13:05 1029 30.39 858 25.34 3.1 37.6 33 -11.6 11.1
13:10 1029 30.39 859 25.37 2.5 36.5 35 -11.5 11.3
13:15 1029 30.39 858 25.34 1.7 35 36 -11.8 10.7
13:20 1029 30.39 858 25.34 1.9 35.4 36 -11.7 10.9
13:25 1029 30.39 858 25.34 2 35.5 34 -12.4 9.7
13:30 1029 30.39 858 25.34 2.4 36.2 34 -11.9 10.6
13:35 1029 30.39 858 25.34 1.5 34.7 38 -11.4 11.5
13:40 1029 30.39 858 25.34 1.4 34.6 38 -11.3 11.7
13:45 1029 30.39 858 25.34 1.3 34.3 39 -11.3 11.6
13:50 1029 30.39 858 25.34 1.5 34.7 37 -11.8 10.8
13:55 1029 30.39 858 25.34 2.1 35.8 35 -11.9 10.6
14:00 1029 30.39 858 25.34 2.2 35.9 33 -12.4 9.6
14:05 1029 30.39 858 25.34 1.6 34.9 34 -12.5 9.6
14:10 1029 30.39 858 25.34 1.6 34.9 35 -12.2 10
14:15 1029 30.39 858 25.34 2.4 36.3 33 -12.2 10.1
14:20 1029 30.39 858 25.34 2.6 36.6 34 -11.9 10.6
14:25 1028 30.36 858 25.34 2.4 36.3 34 -11.9 10.7
14:30 1028 30.36 858 25.34 1.8 35.3 34 -12.5 9.4
14:35 1028 30.36 858 25.34 1.7 35.1 35 -12.3 9.9
14:40 1028 30.36 857 25.31 1.7 35 35 -12.1 10.1
14:45 1028 30.36 857 25.31 1.7 35 36 -11.9 10.6
14:50 1028 30.36 857 25.31 1.6 34.9 34 -12.5 9.6
14:55 1028 30.36 857 25.31 1.6 34.8 35 -12.2 10.1
15:00 1028 30.36 857 25.31 1.7 35 37 -11.5 11.4
15:05 1028 30.36 857 25.31 2.5 36.4 34 -11.7 10.9
15:10 1028 30.36 857 25.31 2.7 36.9 34 -11.6 11.1
15:15 1028 30.36 857 25.31 3 37.5 34 -11.4 11.5
15:20 1028 30.36 857 25.31 2.7 36.8 33 -12.1 10.2
15:25 1028 30.36 857 25.31 1.4 34.5 36 -12.3 9.9
15:30 1028 30.36 857 25.31 0.8 33.4 38 -12.1 10.1
15:35 1028 30.36 857 25.31 0.8 33.4 35 -13.1 8.4
15:40 1028 30.36 857 25.31 1.2 34.2 34 -13.2 8.3
15:45 1028 30.36 857 25.31 1.2 34.1 34 -13 8.6
15:50 1028 30.36 857 25.31 1 33.9 35 -12.8 9
15:55 1028 30.36 857 25.31 1.1 34 35 -12.7 9.2
16:00 1028 30.36 857 25.31 1.5 34.7 35 -12.3 9.8
16:05 1028 30.36 857 25.31 1 33.8 36 -12.5 9.5
16:10 1028 30.36 857 25.31 1 33.8 33 -13.4 7.9
16:15 1028 30.36 857 25.31 0.9 33.7 39 -11.6 11.2
16:20 1027 30.33 857 25.31 0.6 33 42 -11.1 12.1
16:25 1027 30.33 857 25.31 -0.3 31.5 45 -10.7 12.8
16:30 1027 30.33 857 25.31 -0.6 30.9 48 -10.3 13.4
16:35 1027 30.33 856 25.28 -0.9 30.5 51 -9.9 14.2
16:40 1027 30.33 856 25.28 -1 30.1 51 -10 13.9
16:45 1027 30.33 856 25.28 -1.5 29.3 54 -9.7 14.5
16:50 1027 30.33 856 25.28 -2 28.5 55 -9.9 14.3
16:55 1027 30.33 856 25.28 -2.3 27.8 57 -9.9 14.3
17:00 1027 30.33 856 25.28 -2.7 27.1 59 -9.6 14.7
17:05 1027 30.33 856 25.28 -2.9 26.7 60 -9.6 14.8
17:10 1027 30.33 856 25.28 -2.9 26.7 60 -9.7 14.6
17:15 1027 30.33 856 25.28 -3 26.5 62 -9.3 15.3
17:20 1027 30.33 856 25.28 -3.1 26.3 63 -9.2 15.4
17:25 1027 30.33 856 25.28 -3.3 26.1 64 -9.2 15.5
17:30 1027 30.33 856 25.28 -3.3 26 64 -9.1 15.5
17:35 1027 30.33 856 25.28 -3.5 25.7 64 -9.4 15.1
17:40 1027 30.33 856 25.28 -3.7 25.3 61 -10.2 13.7
17:45 1027 30.33 856 25.28 -3.9 25.1 62 -10.1 13.8
17:50 1027 30.33 856 25.28 -4 24.8 62 -10.3 13.5
17:55 1027 30.33 856 25.28 -4.2 24.5 59 -11 12.2
18:00 1027 30.33 856 25.28 -4.2 24.5 59 -11.1 12.1
18:05 1027 30.33 856 25.28 -4.2 24.5 60 -10.8 12.6
18:10 1027 30.33 856 25.28 -4.2 24.5 59 -10.9 12.3
18:15 1026 30.3 856 25.28 -4.3 24.3 62 -10.5 13.1
18:20 1026 30.3 856 25.28 -4.2 24.4 61 -10.6 12.9
18:25 1026 30.3 855 25.25 -4.2 24.4 60 -10.9 12.4
18:30 1026 30.3 855 25.25 -4 24.7 54 -11.9 10.5
18:35 1026 30.3 855 25.25 -3.5 25.8 53 -11.7 11
18:40 1026 30.3 855 25.25 -3.3 26.1 49 -12.6 9.4
18:45 1026 30.3 855 25.25 -3.6 25.6 57 -10.9 12.4
18:50 1025 30.27 855 25.25 -4 24.9 62 -10.3 13.5
18:55 1025 30.27 855 25.25 -4.1 24.6 63 -10.1 13.9
19:00 1025 30.27 854 25.22 -4.1 24.7 60 -10.7 12.8
19:05 1025 30.27 854 25.22 -4 24.7 62 -10.4 13.3
19:10 1025 30.27 855 25.25 -4.3 24.3 64 -10.1 13.8
19:15 1025 30.27 855 25.25 -4.3 24.3 63 -10.3 13.5
19:20 1025 30.27 855 25.25 -4 24.8 61 -10.4 13.2
19:25 1025 30.27 855 25.25 -3.7 25.3 57 -11.1 12
19:30 1025 30.27 855 25.25 -3.3 26.1 54 -11.2 11.8
19:35 1025 30.27 854 25.22 -3 26.6 56 -10.7 12.8
19:40 1025 30.27 854 25.22 -3.2 26.3 57 -10.6 12.9
19:45 1025 30.27 854 25.22 -3.3 26.1 57 -10.6 12.9
19:50 1025 30.27 854 25.22 -3.3 26 57 -10.7 12.8
19:55 1025 30.27 854 25.22 -3.2 26.3 56 -10.7 12.7
20:00 1025 30.27 854 25.22 -3.1 26.4 57 -10.4 13.3
20:05 1025 30.27 854 25.22 -3.3 26.1 59 -10.2 13.7
20:10 1025 30.27 854 25.22 -3.4 25.9 59 -10.3 13.5
20:15 1025 30.27 854 25.22 -3.6 25.6 60 -10.2 13.7
20:20 1025 30.27 854 25.22 -4.1 24.6 64 -9.9 14.3
20:25 1024 30.24 854 25.22 -4.5 23.9 66 -9.8 14.3
20:30 1024 30.24 854 25.22 -4.2 24.4 66 -9.6 14.6
20:35 1024 30.24 853 25.19 -3.8 25.1 63 -9.8 14.3
20:40 1024 30.24 853 25.19 -3.8 25.2 62 -10.1 13.8
20:45 1024 30.24 853 25.19 -3.5 25.8 61 -9.9 14.2
20:50 1024 30.24 853 25.19 -3.3 26 55 -11.2 11.9
20:55 1024 30.24 853 25.19 -2.9 26.8 54 -11 12.1
21:00 1024 30.24 853 25.19 -2.7 27.1 54 -10.8 12.6
21:05 1024 30.24 853 25.19 -3 26.6 61 -9.4 15.1
21:10 1024 30.24 853 25.19 -4.2 24.5 67 -9.4 15.1
21:15 1024 30.24 853 25.19 -3.9 25.1 65 -9.5 15
21:20 1024 30.24 853 25.19 -4 24.9 66 -9.3 15.3
21:25 1024 30.24 853 25.19 -4 24.9 66 -9.5 15
21:30 1024 30.24 853 25.19 -3.8 25.1 65 -9.4 15
21:35 1024 30.24 853 25.19 -3.7 25.4 63 -9.7 14.6
21:40 1024 30.24 853 25.19 -3.3 26.1 61 -9.8 14.3
21:45 1024 30.24 853 25.19 -3.3 26.1 63 -9.3 15.3
21:50 1024 30.24 853 25.19 -3.6 25.5 66 -9.1 15.5
21:55 1023 30.21 853 25.19 -4 24.8 68 -9 15.7
22:00 1023 30.21 853 25.19 -4.3 24.3 70 -8.9 16
22:05 1023 30.21 852 25.16 -4.2 24.4 64 -10 14
22:10 1023 30.21 852 25.16 -3.8 25.2 59 -10.7 12.8
22:15 1023 30.21 852 25.16 -3.2 26.2 58 -10.3 13.5
22:20 1023 30.21 852 25.16 -3.3 26.1 60 -10 14
22:25 1023 30.21 852 25.16 -3.7 25.3 61 -10.1 13.8
22:30 1023 30.21 852 25.16 -4 24.8 62 -10.2 13.6
22:35 1023 30.21 852 25.16 -4.2 24.4 60 -10.9 12.4
22:40 1023 30.21 852 25.16 -4 24.7 58 -11.1 12.1
22:45 1023 30.21 852 25.16 -4 24.8 60 -10.7 12.7
22:50 1022 30.18 852 25.16 -4.2 24.4 58 -11.3 11.6
22:55 1022 30.18 852 25.16 -4 24.9 55 -11.6 11.1
23:00 1022 30.18 851 25.13 -3.6 25.6 56 -11.2 11.9
23:05 1022 30.18 851 25.13 -3.4 25.9 57 -10.8 12.6
23:10 1022 30.18 851 25.13 -3.5 25.7 57 -10.8 12.6
23:15 1022 30.18 851 25.13 -3.4 25.9 58 -10.5 13
23:20 1022 30.18 851 25.13 -3.6 25.5 60 -10.4 13.3
23:25 1022 30.18 851 25.13 -3.3 26.1 59 -10.2 13.7
23:30 1022 30.18 851 25.13 -3 26.6 54 -11.1 12
23:35 1022 30.18 851 25.13 -2.5 27.5 52 -11.1 12
23:40 1022 30.18 851 25.13 -2.5 27.5 53 -10.7 12.7
23:45 1022 30.18 851 25.13 -2.8 27 55 -10.6 12.9
23:50 1021 30.15 851 25.13 -3 26.6 56 -10.6 12.9
23:55 1021 30.15 851 25.13 -3.1 26.4 55 -10.8 12.6
24:00 1021 30.15 850 25.1 -2.7 27.1 52 -11.3 11.6